sensor_id;sensor_type;location;lat;lon;timestamp;pressure;altitude;pressure_sealevel;temperature;humidity
57668;BME280;43499;52.366;12.912;2022-09-21T00:00:37;102106.25;;;7.07;94.91
57668;BME280;43499;52.366;12.912;2022-09-21T00:01:38;102113.19;;;7.06;94.87
57668;BME280;43499;52.366;12.912;2022-09-21T00:02:39;102106.84;;;6.97;94.80
57668;BME280;43499;52.366;12.912;2022-09-21T00:03:41;102113.75;;;6.97;95.35
57668;BME280;43499;52.366;12.912;2022-09-21T00:04:42;102111.31;;;6.98;95.62
57668;BME280;43499;52.366;12.912;2022-09-21T00:05:43;102100.47;;;7.02;94.82
57668;BME280;43499;52.366;12.912;2022-09-21T00:06:44;102100.88;;;6.98;95.33
57668;BME280;43499;52.366;12.912;2022-09-21T00:07:45;102107.59;;;6.96;95.37
57668;BME280;43499;52.366;12.912;2022-09-21T00:08:46;102110.78;;;6.93;95.53
57668;BME280;43499;52.366;12.912;2022-09-21T00:09:47;102104.97;;;6.96;95.37
57668;BME280;43499;52.366;12.912;2022-09-21T00:10:49;102111.75;;;6.87;95.54
57668;BME280;43499;52.366;12.912;2022-09-21T00:11:50;102113.22;;;6.85;95.83
57668;BME280;43499;52.366;12.912;2022-09-21T00:12:52;102113.63;;;6.81;95.59
57668;BME280;43499;52.366;12.912;2022-09-21T00:13:54;102114.00;;;6.76;96.26
57668;BME280;43499;52.366;12.912;2022-09-21T00:14:57;102118.31;;;6.69;96.41
57668;BME280;43499;52.366;12.912;2022-09-21T00:15:59;102110.31;;;6.67;96.80
57668;BME280;43499;52.366;12.912;2022-09-21T00:17:00;102106.75;;;6.74;96.65
57668;BME280;43499;52.366;12.912;2022-09-21T00:18:01;102113.84;;;6.75;96.16
57668;BME280;43499;52.366;12.912;2022-09-21T00:19:03;102108.41;;;6.73;95.70
57668;BME280;43499;52.366;12.912;2022-09-21T00:20:06;102110.88;;;6.64;96.56
57668;BME280;43499;52.366;12.912;2022-09-21T00:21:09;102114.63;;;6.59;96.23
57668;BME280;43499;52.366;12.912;2022-09-21T00:22:11;102112.94;;;6.53;97.00
57668;BME280;43499;52.366;12.912;2022-09-21T00:23:12;102113.88;;;6.60;97.29
57668;BME280;43499;52.366;12.912;2022-09-21T00:24:13;102112.75;;;6.58;97.29
57668;BME280;43499;52.366;12.912;2022-09-21T00:25:14;102110.13;;;6.58;97.16
57668;BME280;43499;52.366;12.912;2022-09-21T00:26:18;102115.56;;;6.60;97.18
57668;BME280;43499;52.366;12.912;2022-09-21T00:27:19;102110.53;;;6.54;97.15
57668;BME280;43499;52.366;12.912;2022-09-21T00:28:20;102108.69;;;6.53;97.59
57668;BME280;43499;52.366;12.912;2022-09-21T00:29:21;102108.66;;;6.60;97.12
57668;BME280;43499;52.366;12.912;2022-09-21T00:30:22;102114.81;;;6.61;97.15
57668;BME280;43499;52.366;12.912;2022-09-21T00:31:24;102114.25;;;6.56;97.30
57668;BME280;43499;52.366;12.912;2022-09-21T00:32:25;102115.75;;;6.61;96.98
57668;BME280;43499;52.366;12.912;2022-09-21T00:33:26;102116.50;;;6.60;97.09
57668;BME280;43499;52.366;12.912;2022-09-21T00:34:27;102113.69;;;6.59;97.11
57668;BME280;43499;52.366;12.912;2022-09-21T00:35:28;102115.19;;;6.57;96.94
57668;BME280;43499;52.366;12.912;2022-09-21T00:36:29;102116.31;;;6.59;97.28
57668;BME280;43499;52.366;12.912;2022-09-21T00:37:30;102111.44;;;6.62;97.41
57668;BME280;43499;52.366;12.912;2022-09-21T00:38:31;102117.59;;;6.62;96.88
57668;BME280;43499;52.366;12.912;2022-09-21T00:39:33;102112.00;;;6.59;97.38
57668;BME280;43499;52.366;12.912;2022-09-21T00:40:34;102116.88;;;6.63;97.03
57668;BME280;43499;52.366;12.912;2022-09-21T00:41:35;102115.38;;;6.66;96.93
57668;BME280;43499;52.366;12.912;2022-09-21T00:42:36;102115.34;;;6.73;96.46
57668;BME280;43499;52.366;12.912;2022-09-21T00:43:43;102117.03;;;6.72;96.69
57668;BME280;43499;52.366;12.912;2022-09-21T00:44:44;102124.47;;;6.76;96.99
57668;BME280;43499;52.366;12.912;2022-09-21T00:45:47;102124.88;;;6.72;96.88
57668;BME280;43499;52.366;12.912;2022-09-21T00:46:51;102117.03;;;6.72;96.92
57668;BME280;43499;52.366;12.912;2022-09-21T00:47:53;102120.56;;;6.73;96.66
57668;BME280;43499;52.366;12.912;2022-09-21T00:48:54;102120.56;;;6.73;97.15
57668;BME280;43499;52.366;12.912;2022-09-21T00:49:58;102124.13;;;6.66;97.53
57668;BME280;43499;52.366;12.912;2022-09-21T00:51:02;102118.53;;;6.63;98.00
57668;BME280;43499;52.366;12.912;2022-09-21T00:52:06;102120.41;;;6.64;97.39
57668;BME280;43499;52.366;12.912;2022-09-21T00:53:07;102126.38;;;6.70;97.41
57668;BME280;43499;52.366;12.912;2022-09-21T00:54:13;102133.47;;;6.64;98.37
57668;BME280;43499;52.366;12.912;2022-09-21T00:55:21;102126.91;;;6.68;97.65
57668;BME280;43499;52.366;12.912;2022-09-21T00:56:25;102131.75;;;6.72;97.72
57668;BME280;43499;52.366;12.912;2022-09-21T00:57:28;102128.03;;;6.70;97.15
57668;BME280;43499;52.366;12.912;2022-09-21T00:58:36;102134.19;;;6.63;97.83
57668;BME280;43499;52.366;12.912;2022-09-21T00:59:38;102120.22;;;6.62;98.32
57668;BME280;43499;52.366;12.912;2022-09-21T01:00:40;102126.56;;;6.64;97.56
57668;BME280;43499;52.366;12.912;2022-09-21T01:01:42;102125.06;;;6.67;97.67
57668;BME280;43499;52.366;12.912;2022-09-21T01:02:44;102130.47;;;6.68;98.08
57668;BME280;43499;52.366;12.912;2022-09-21T01:03:46;102128.78;;;6.69;97.87
57668;BME280;43499;52.366;12.912;2022-09-21T01:04:47;102132.13;;;6.68;97.80
57668;BME280;43499;52.366;12.912;2022-09-21T01:05:48;102132.72;;;6.65;98.25
57668;BME280;43499;52.366;12.912;2022-09-21T01:06:49;102130.84;;;6.64;98.27
57668;BME280;43499;52.366;12.912;2022-09-21T01:07:51;102128.44;;;6.66;98.28
57668;BME280;43499;52.366;12.912;2022-09-21T01:08:54;102132.53;;;6.63;97.90
57668;BME280;43499;52.366;12.912;2022-09-21T01:10:02;102133.13;;;6.61;98.10
57668;BME280;43499;52.366;12.912;2022-09-21T01:11:39;102137.75;;;6.56;98.78
57668;BME280;43499;52.366;12.912;2022-09-21T01:12:59;102136.66;;;6.61;98.41
57668;BME280;43499;52.366;12.912;2022-09-21T01:14:17;102140.34;;;6.78;97.62
57668;BME280;43499;52.366;12.912;2022-09-21T01:15:38;102140.91;;;6.75;97.31
57668;BME280;43499;52.366;12.912;2022-09-21T01:22:08;102133.28;;;6.62;97.21
57668;BME280;43499;52.366;12.912;2022-09-21T01:24:43;102136.47;;;6.53;97.97
57668;BME280;43499;52.366;12.912;2022-09-21T01:26:26;102138.34;;;6.39;98.09
57668;BME280;43499;52.366;12.912;2022-09-21T01:27:40;102140.22;;;6.40;98.89
57668;BME280;43499;52.366;12.912;2022-09-21T01:30:18;102139.06;;;6.53;97.56
57668;BME280;43499;52.366;12.912;2022-09-21T01:31:24;102139.66;;;6.50;97.79
57668;BME280;43499;52.366;12.912;2022-09-21T01:32:47;102141.16;;;6.41;97.59
57668;BME280;43499;52.366;12.912;2022-09-21T01:33:57;102136.84;;;6.41;97.95
57668;BME280;43499;52.366;12.912;2022-09-21T01:35:08;102141.53;;;6.37;97.98
57668;BME280;43499;52.366;12.912;2022-09-21T01:36:15;102140.59;;;6.29;99.06
57668;BME280;43499;52.366;12.912;2022-09-21T01:37:21;102139.69;;;6.28;98.61
57668;BME280;43499;52.366;12.912;2022-09-21T01:38:27;102142.28;;;6.28;99.00
57668;BME280;43499;52.366;12.912;2022-09-21T01:39:33;102141.94;;;6.32;98.48
57668;BME280;43499;52.366;12.912;2022-09-21T01:40:40;102138.38;;;6.32;98.01
57668;BME280;43499;52.366;12.912;2022-09-21T01:41:44;102134.28;;;6.27;98.06
57668;BME280;43499;52.366;12.912;2022-09-21T01:42:48;102131.09;;;6.29;98.17
57668;BME280;43499;52.366;12.912;2022-09-21T01:43:57;102136.91;;;6.27;97.92
57668;BME280;43499;52.366;12.912;2022-09-21T01:45:02;102142.28;;;6.36;98.06
57668;BME280;43499;52.366;12.912;2022-09-21T01:46:11;102137.44;;;6.39;96.90
57668;BME280;43499;52.366;12.912;2022-09-21T01:47:16;102139.31;;;6.32;98.08
57668;BME280;43499;52.366;12.912;2022-09-21T01:48:19;102144.16;;;6.29;98.11
57668;BME280;43499;52.366;12.912;2022-09-21T01:49:26;102138.00;;;6.36;97.80
57668;BME280;43499;52.366;12.912;2022-09-21T01:50:51;102140.41;;;6.35;97.95
57668;BME280;43499;52.366;12.912;2022-09-21T01:52:00;102149.38;;;6.29;97.81
57668;BME280;43499;52.366;12.912;2022-09-21T01:53:07;102143.78;;;6.26;98.15
57668;BME280;43499;52.366;12.912;2022-09-21T01:54:21;102141.00;;;6.25;97.96
57668;BME280;43499;52.366;12.912;2022-09-21T01:56:09;102144.53;;;6.25;98.11
57668;BME280;43499;52.366;12.912;2022-09-21T01:57:00;102146.00;;;6.23;98.78
57668;BME280;43499;52.366;12.912;2022-09-21T01:58:13;102139.13;;;6.24;98.68
57668;BME280;43499;52.366;12.912;2022-09-21T01:59:39;102148.25;;;6.27;98.63
57668;BME280;43499;52.366;12.912;2022-09-21T02:00:44;102145.06;;;6.30;98.50
57668;BME280;43499;52.366;12.912;2022-09-21T02:01:56;102147.47;;;6.50;97.74
57668;BME280;43499;52.366;12.912;2022-09-21T02:03:06;102144.13;;;6.37;97.20
57668;BME280;43499;52.366;12.912;2022-09-21T02:04:11;102148.06;;;6.33;96.94
57668;BME280;43499;52.366;12.912;2022-09-21T02:05:14;102148.81;;;6.25;97.00
57668;BME280;43499;52.366;12.912;2022-09-21T02:06:16;102148.44;;;6.22;97.36
57668;BME280;43499;52.366;12.912;2022-09-21T02:07:18;102151.41;;;6.17;97.39
57668;BME280;43499;52.366;12.912;2022-09-21T02:08:19;102146.75;;;6.15;97.76
57668;BME280;43499;52.366;12.912;2022-09-21T02:09:22;102147.16;;;6.18;98.01
57668;BME280;43499;52.366;12.912;2022-09-21T02:10:32;102150.31;;;6.23;97.64
57668;BME280;43499;52.366;12.912;2022-09-21T02:11:34;102151.78;;;6.21;97.38
57668;BME280;43499;52.366;12.912;2022-09-21T02:12:42;102150.84;;;6.13;97.62
57668;BME280;43499;52.366;12.912;2022-09-21T02:13:45;102139.84;;;6.08;98.03
57668;BME280;43499;52.366;12.912;2022-09-21T02:14:49;102149.00;;;6.12;97.79
57668;BME280;43499;52.366;12.912;2022-09-21T02:17:41;102150.13;;;6.14;97.60
57668;BME280;43499;52.366;12.912;2022-09-21T02:19:17;102153.28;;;6.11;97.41
57668;BME280;43499;52.366;12.912;2022-09-21T02:20:29;102150.88;;;6.06;97.78
57668;BME280;43499;52.366;12.912;2022-09-21T02:21:46;102153.88;;;6.09;97.92
57668;BME280;43499;52.366;12.912;2022-09-21T02:22:58;102142.47;;;6.01;97.50
57668;BME280;43499;52.366;12.912;2022-09-21T02:24:17;102152.56;;;6.12;97.56
57668;BME280;43499;52.366;12.912;2022-09-21T02:28:38;102150.13;;;6.14;97.88
57668;BME280;43499;52.366;12.912;2022-09-21T02:29:53;102154.41;;;6.06;98.29
57668;BME280;43499;52.366;12.912;2022-09-21T02:31:05;102153.28;;;6.04;97.98
57668;BME280;43499;52.366;12.912;2022-09-21T02:32:39;102154.22;;;6.12;97.57
57668;BME280;43499;52.366;12.912;2022-09-21T02:33:51;102151.22;;;6.01;97.96
57668;BME280;43499;52.366;12.912;2022-09-21T02:35:01;102147.88;;;6.02;98.05
57668;BME280;43499;52.366;12.912;2022-09-21T02:36:08;102151.19;;;5.94;98.59
57668;BME280;43499;52.366;12.912;2022-09-21T02:37:35;102152.31;;;5.96;98.56
57668;BME280;43499;52.366;12.912;2022-09-21T02:38:49;102147.50;;;5.99;97.73
57668;BME280;43499;52.366;12.912;2022-09-21T02:40:09;102155.31;;;5.99;98.33
57668;BME280;43499;52.366;12.912;2022-09-21T02:41:29;102154.22;;;6.05;98.16
57668;BME280;43499;52.366;12.912;2022-09-21T02:42:38;102151.38;;;5.96;97.76
57668;BME280;43499;52.366;12.912;2022-09-21T02:43:45;102145.22;;;5.88;98.73
57668;BME280;43499;52.366;12.912;2022-09-21T02:44:56;102148.59;;;5.94;97.95
57668;BME280;43499;52.366;12.912;2022-09-21T02:46:01;102147.13;;;6.04;97.58
57668;BME280;43499;52.366;12.912;2022-09-21T02:47:18;102149.16;;;5.99;97.60
57668;BME280;43499;52.366;12.912;2022-09-21T02:48:38;102147.47;;;5.92;97.61
57668;BME280;43499;52.366;12.912;2022-09-21T02:49:46;102155.84;;;5.90;97.98
57668;BME280;43499;52.366;12.912;2022-09-21T02:50:54;102160.13;;;5.82;98.91
57668;BME280;43499;52.366;12.912;2022-09-21T02:52:02;102160.13;;;5.82;98.72
57668;BME280;43499;52.366;12.912;2022-09-21T02:53:05;102160.69;;;5.86;98.32
57668;BME280;43499;52.366;12.912;2022-09-21T02:54:12;102159.59;;;5.92;97.85
57668;BME280;43499;52.366;12.912;2022-09-21T02:55:15;102160.53;;;5.85;97.71
57668;BME280;43499;52.366;12.912;2022-09-21T02:56:16;102153.03;;;5.88;97.77
57668;BME280;43499;52.366;12.912;2022-09-21T02:57:19;102159.94;;;5.95;97.58
57668;BME280;43499;52.366;12.912;2022-09-21T02:58:23;102160.88;;;5.81;97.89
57668;BME280;43499;52.366;12.912;2022-09-21T02:59:26;102166.25;;;5.82;98.25
57668;BME280;43499;52.366;12.912;2022-09-21T03:00:28;102157.69;;;5.83;97.84
57668;BME280;43499;52.366;12.912;2022-09-21T03:01:30;102160.13;;;5.82;98.53
57668;BME280;43499;52.366;12.912;2022-09-21T03:02:40;102156.56;;;5.81;99.03
57668;BME280;43499;52.366;12.912;2022-09-21T03:03:42;102159.56;;;5.84;98.47
57668;BME280;43499;52.366;12.912;2022-09-21T03:04:46;102161.59;;;5.80;98.95
57668;BME280;43499;52.366;12.912;2022-09-21T03:05:51;102165.13;;;5.73;99.36
57668;BME280;43499;52.366;12.912;2022-09-21T03:06:52;102168.47;;;5.72;99.71
57668;BME280;43499;52.366;12.912;2022-09-21T03:07:53;102172.63;;;5.77;99.80
57668;BME280;43499;52.366;12.912;2022-09-21T03:08:54;102164.78;;;5.84;98.94
57668;BME280;43499;52.366;12.912;2022-09-21T03:09:58;102168.34;;;5.85;98.63
57668;BME280;43499;52.366;12.912;2022-09-21T03:10:59;102166.81;;;5.87;97.94
57668;BME280;43499;52.366;12.912;2022-09-21T03:12:00;102160.13;;;5.82;98.20
57668;BME280;43499;52.366;12.912;2022-09-21T03:13:02;102173.19;;;5.89;98.30
57668;BME280;43499;52.366;12.912;2022-09-21T03:14:03;102172.63;;;5.99;97.61
57668;BME280;43499;52.366;12.912;2022-09-21T03:15:08;102168.50;;;5.94;97.54
57668;BME280;43499;52.366;12.912;2022-09-21T03:16:10;102180.44;;;5.84;98.41
57668;BME280;43499;52.366;12.912;2022-09-21T03:17:12;102180.06;;;5.81;98.35
57668;BME280;43499;52.366;12.912;2022-09-21T03:18:13;102178.00;;;5.79;98.35
57668;BME280;43499;52.366;12.912;2022-09-21T03:19:14;102176.53;;;5.74;98.22
57668;BME280;43499;52.366;12.912;2022-09-21T03:20:15;102179.13;;;5.74;98.02
57668;BME280;43499;52.366;12.912;2022-09-21T03:21:16;102186.91;;;5.66;98.88
57668;BME280;43499;52.366;12.912;2022-09-21T03:22:17;102182.84;;;5.68;98.97
57668;BME280;43499;52.366;12.912;2022-09-21T03:23:18;102180.63;;;5.71;98.45
57668;BME280;43499;52.366;12.912;2022-09-21T03:24:19;102184.13;;;5.65;98.77
57668;BME280;43499;52.366;12.912;2022-09-21T03:25:43;102180.63;;;5.71;98.47
57668;BME280;43499;52.366;12.912;2022-09-21T03:26:44;102180.22;;;5.76;98.63
57668;BME280;43499;52.366;12.912;2022-09-21T03:27:45;102186.78;;;5.79;98.08
57668;BME280;43499;52.366;12.912;2022-09-21T03:28:50;102182.28;;;5.71;98.43
57668;BME280;43499;52.366;12.912;2022-09-21T03:29:54;102186.19;;;5.67;98.53
57668;BME280;43499;52.366;12.912;2022-09-21T03:30:55;102188.22;;;5.55;99.20
57668;BME280;43499;52.366;12.912;2022-09-21T03:31:56;102192.28;;;5.53;99.38
57668;BME280;43499;52.366;12.912;2022-09-21T03:32:57;102183.72;;;5.54;99.80
57668;BME280;43499;52.366;12.912;2022-09-21T03:33:58;102183.69;;;5.47;99.63
57668;BME280;43499;52.366;12.912;2022-09-21T03:34:59;102187.25;;;5.55;99.77
57668;BME280;43499;52.366;12.912;2022-09-21T03:36:00;102184.47;;;5.53;99.93
57668;BME280;43499;52.366;12.912;2022-09-21T03:37:03;102196.59;;;5.60;98.90
57668;BME280;43499;52.366;12.912;2022-09-21T03:38:05;102179.25;;;5.61;99.45
57668;BME280;43499;52.366;12.912;2022-09-21T03:39:06;102188.56;;;5.59;99.04
57668;BME280;43499;52.366;12.912;2022-09-21T03:40:07;102183.97;;;5.63;98.55
57668;BME280;43499;52.366;12.912;2022-09-21T03:41:08;102186.19;;;5.60;98.57
57668;BME280;43499;52.366;12.912;2022-09-21T03:42:09;102189.19;;;5.63;98.86
57668;BME280;43499;52.366;12.912;2022-09-21T03:43:12;102186.53;;;5.56;98.19
57668;BME280;43499;52.366;12.912;2022-09-21T03:44:13;102194.50;;;5.43;99.25
57668;BME280;43499;52.366;12.912;2022-09-21T03:45:16;102193.97;;;5.53;98.88
57668;BME280;43499;52.366;12.912;2022-09-21T03:46:17;102186.13;;;5.53;99.01
57668;BME280;43499;52.366;12.912;2022-09-21T03:47:18;102192.66;;;5.49;99.29
57668;BME280;43499;52.366;12.912;2022-09-21T03:48:20;102190.78;;;5.48;99.93
57668;BME280;43499;52.366;12.912;2022-09-21T03:49:22;102195.47;;;5.51;99.45
57668;BME280;43499;52.366;12.912;2022-09-21T03:50:24;102196.00;;;5.48;99.77
57668;BME280;43499;52.366;12.912;2022-09-21T03:51:25;102199.94;;;5.52;99.49
57668;BME280;43499;52.366;12.912;2022-09-21T03:52:26;102194.16;;;5.54;100.00
57668;BME280;43499;52.366;12.912;2022-09-21T03:53:27;102191.75;;;5.56;99.45
57668;BME280;43499;52.366;12.912;2022-09-21T03:54:28;102198.47;;;5.61;99.12
57668;BME280;43499;52.366;12.912;2022-09-21T03:55:30;102197.69;;;5.55;99.64
57668;BME280;43499;52.366;12.912;2022-09-21T03:56:31;102194.91;;;5.53;99.91
57668;BME280;43499;52.366;12.912;2022-09-21T03:57:32;102200.69;;;5.51;100.00
57668;BME280;43499;52.366;12.912;2022-09-21T03:58:34;102209.81;;;5.62;100.00
57668;BME280;43499;52.366;12.912;2022-09-21T03:59:35;102203.31;;;5.58;99.12
57668;BME280;43499;52.366;12.912;2022-09-21T04:00:36;102208.13;;;5.55;99.48
57668;BME280;43499;52.366;12.912;2022-09-21T04:01:38;102193.94;;;5.46;99.54
57668;BME280;43499;52.366;12.912;2022-09-21T04:02:40;102201.78;;;5.53;100.00
57668;BME280;43499;52.366;12.912;2022-09-21T04:03:41;102197.50;;;5.53;99.57
57668;BME280;43499;52.366;12.912;2022-09-21T04:04:42;102202.72;;;5.53;99.21
57668;BME280;43499;52.366;12.912;2022-09-21T04:05:43;102199.22;;;5.60;99.09
57668;BME280;43499;52.366;12.912;2022-09-21T04:06:44;102195.81;;;5.54;98.78
57668;BME280;43499;52.366;12.912;2022-09-21T04:07:45;102191.72;;;5.49;99.31
57668;BME280;43499;52.366;12.912;2022-09-21T04:08:46;102204.19;;;5.44;99.79
57668;BME280;43499;52.366;12.912;2022-09-21T04:09:48;102202.88;;;5.40;99.57
57668;BME280;43499;52.366;12.912;2022-09-21T04:10:49;102202.50;;;5.37;99.84
57668;BME280;43499;52.366;12.912;2022-09-21T04:11:50;102202.66;;;5.39;99.80
57668;BME280;43499;52.366;12.912;2022-09-21T04:12:56;102196.91;;;5.41;99.92
57668;BME280;43499;52.366;12.912;2022-09-21T04:13:57;102202.88;;;5.40;100.00
57668;BME280;43499;52.366;12.912;2022-09-21T04:15:01;102202.50;;;5.37;100.00
57668;BME280;43499;52.366;12.912;2022-09-21T04:16:03;102207.88;;;5.32;100.00
57668;BME280;43499;52.366;12.912;2022-09-21T04:17:04;102212.38;;;5.40;100.00
57668;BME280;43499;52.366;12.912;2022-09-21T04:18:05;102207.94;;;5.53;99.43
57668;BME280;43499;52.366;12.912;2022-09-21T04:19:06;102206.97;;;5.46;100.00
57668;BME280;43499;52.366;12.912;2022-09-21T04:20:08;102204.19;;;5.44;99.66
57668;BME280;43499;52.366;12.912;2022-09-21T04:21:09;102212.34;;;5.33;100.00
57668;BME280;43499;52.366;12.912;2022-09-21T04:22:10;102213.09;;;5.39;100.00
57668;BME280;43499;52.366;12.912;2022-09-21T04:23:12;102212.38;;;5.40;100.00
57668;BME280;43499;52.366;12.912;2022-09-21T04:24:13;102214.63;;;5.44;100.00
57668;BME280;43499;52.366;12.912;2022-09-21T04:25:14;102206.81;;;5.51;99.34
57668;BME280;43499;52.366;12.912;2022-09-21T04:26:19;102202.41;;;5.65;98.75
57668;BME280;43499;52.366;12.912;2022-09-21T04:27:20;102211.53;;;5.61;98.90
57668;BME280;43499;52.366;12.912;2022-09-21T04:28:21;102208.28;;;5.42;99.10
57668;BME280;43499;52.366;12.912;2022-09-21T04:29:23;102211.28;;;5.45;98.81
57668;BME280;43499;52.366;12.912;2022-09-21T04:30:24;102209.00;;;5.34;100.00
57668;BME280;43499;52.366;12.912;2022-09-21T04:31:26;102213.09;;;5.39;100.00
57668;BME280;43499;52.366;12.912;2022-09-21T04:32:27;102211.44;;;5.39;100.00
57668;BME280;43499;52.366;12.912;2022-09-21T04:33:28;102207.53;;;5.43;99.80
57668;BME280;43499;52.366;12.912;2022-09-21T04:34:29;102205.50;;;5.48;99.68
57668;BME280;43499;52.366;12.912;2022-09-21T04:35:30;102208.84;;;5.39;100.00
57668;BME280;43499;52.366;12.912;2022-09-21T04:36:31;102202.66;;;5.39;99.79
57668;BME280;43499;52.366;12.912;2022-09-21T04:37:33;102207.13;;;5.33;100.00
57668;BME280;43499;52.366;12.912;2022-09-21T04:38:34;102204.13;;;5.30;100.00
57668;BME280;43499;52.366;12.912;2022-09-21T04:39:35;102202.50;;;5.37;99.95
57668;BME280;43499;52.366;12.912;2022-09-21T04:40:36;102206.00;;;5.31;100.00
57668;BME280;43499;52.366;12.912;2022-09-21T04:41:37;102206.34;;;5.27;100.00
57668;BME280;43499;52.366;12.912;2022-09-21T04:42:38;102210.31;;;5.37;100.00
57668;BME280;43499;52.366;12.912;2022-09-21T04:43:41;102207.69;;;5.37;99.56
57668;BME280;43499;52.366;12.912;2022-09-21T04:44:43;102208.59;;;5.31;99.69
57668;BME280;43499;52.366;12.912;2022-09-21T04:45:44;102202.09;;;5.34;99.73
57668;BME280;43499;52.366;12.912;2022-09-21T04:46:45;102204.69;;;5.34;100.00
57668;BME280;43499;52.366;12.912;2022-09-21T04:47:46;102210.31;;;5.37;100.00
57668;BME280;43499;52.366;12.912;2022-09-21T04:48:48;102213.25;;;5.33;99.91
57668;BME280;43499;52.366;12.912;2022-09-21T04:49:50;102211.59;;;5.34;99.93
57668;BME280;43499;52.366;12.912;2022-09-21T04:50:52;102209.91;;;5.27;100.00
57668;BME280;43499;52.366;12.912;2022-09-21T04:51:53;102209.34;;;5.30;100.00
57668;BME280;43499;52.366;12.912;2022-09-21T04:52:54;102207.88;;;5.32;100.00
57668;BME280;43499;52.366;12.912;2022-09-21T04:53:55;102215.38;;;5.43;100.00
57668;BME280;43499;52.366;12.912;2022-09-21T04:54:56;102213.09;;;5.39;100.00
57668;BME280;43499;52.366;12.912;2022-09-21T04:55:57;102211.81;;;5.43;100.00
57668;BME280;43499;52.366;12.912;2022-09-21T04:56:58;102209.59;;;5.46;100.00
57668;BME280;43499;52.366;12.912;2022-09-21T04:57:59;102213.50;;;5.49;99.96
57668;BME280;43499;52.366;12.912;2022-09-21T04:59:00;102208.13;;;5.48;99.32
57668;BME280;43499;52.366;12.912;2022-09-21T05:00:03;102210.53;;;5.46;100.00
57668;BME280;43499;52.366;12.912;2022-09-21T05:01:05;102215.19;;;5.49;99.69
57668;BME280;43499;52.366;12.912;2022-09-21T05:02:06;102212.19;;;5.46;99.81
57668;BME280;43499;52.366;12.912;2022-09-21T05:03:07;102206.44;;;5.48;99.33
57668;BME280;43499;52.366;12.912;2022-09-21T05:04:08;102211.81;;;5.43;99.93
57668;BME280;43499;52.366;12.912;2022-09-21T05:05:09;102216.13;;;5.49;99.69
57668;BME280;43499;52.366;12.912;2022-09-21T05:06:10;102220.19;;;5.47;100.00
57668;BME280;43499;52.366;12.912;2022-09-21T05:07:13;102220.03;;;5.46;100.00
57668;BME280;43499;52.366;12.912;2022-09-21T05:08:15;102222.47;;;5.51;99.68
57668;BME280;43499;52.366;12.912;2022-09-21T05:09:16;102212.91;;;5.37;100.00
57668;BME280;43499;52.366;12.912;2022-09-21T05:10:35;102218.47;;;5.33;100.00
57668;BME280;43499;52.366;12.912;2022-09-21T05:11:36;102217.72;;;5.27;100.00
57668;BME280;43499;52.366;12.912;2022-09-21T05:12:38;102220.69;;;5.30;100.00
57668;BME280;43499;52.366;12.912;2022-09-21T05:13:41;102219.22;;;5.32;100.00
57668;BME280;43499;52.366;12.912;2022-09-21T05:14:42;102222.03;;;5.34;100.00
57668;BME280;43499;52.366;12.912;2022-09-21T05:15:44;102214.56;;;5.37;100.00
57668;BME280;43499;52.366;12.912;2022-09-21T05:16:45;102222.22;;;5.35;100.00
57668;BME280;43499;52.366;12.912;2022-09-21T05:17:49;102228.00;;;5.40;100.00
57668;BME280;43499;52.366;12.912;2022-09-21T05:18:52;102228.19;;;5.41;100.00
57668;BME280;43499;52.366;12.912;2022-09-21T05:19:55;102228.41;;;5.43;100.00
57668;BME280;43499;52.366;12.912;2022-09-21T05:20:58;102226.94;;;5.45;99.99
57668;BME280;43499;52.366;12.912;2022-09-21T05:21:59;102228.97;;;5.48;100.00
57668;BME280;43499;52.366;12.912;2022-09-21T05:23:00;102232.72;;;5.50;100.00
57668;BME280;43499;52.366;12.912;2022-09-21T05:24:02;102230.94;;;5.70;99.26
57668;BME280;43499;52.366;12.912;2022-09-21T05:25:03;102233.53;;;5.70;99.57
57668;BME280;43499;52.366;12.912;2022-09-21T05:26:05;102241.19;;;5.83;98.77
57668;BME280;43499;52.366;12.912;2022-09-21T05:27:06;102230.19;;;5.71;98.62
57668;BME280;43499;52.366;12.912;2022-09-21T05:28:07;102237.59;;;5.61;99.31
57668;BME280;43499;52.366;12.912;2022-09-21T05:29:08;102240.94;;;5.60;99.75
57668;BME280;43499;52.366;12.912;2022-09-21T05:30:10;102238.84;;;5.50;100.00
57668;BME280;43499;52.366;12.912;2022-09-21T05:31:28;102238.53;;;5.62;100.00
57668;BME280;43499;52.366;12.912;2022-09-21T05:32:43;102241.34;;;5.63;100.00
57668;BME280;43499;52.366;12.912;2022-09-21T05:33:50;102246.22;;;5.75;100.00
57668;BME280;43499;52.366;12.912;2022-09-21T05:36:48;102250.31;;;5.72;100.00
57668;BME280;43499;52.366;12.912;2022-09-21T05:37:58;102243.44;;;5.80;100.00
57668;BME280;43499;52.366;12.912;2022-09-21T05:39:01;102247.53;;;5.78;99.40
57668;BME280;43499;52.366;12.912;2022-09-21T05:40:03;102250.72;;;5.83;99.85
57668;BME280;43499;52.366;12.912;2022-09-21T05:41:06;102249.41;;;5.86;99.84
57668;BME280;43499;52.366;12.912;2022-09-21T05:42:09;102253.72;;;5.93;99.25
57668;BME280;43499;52.366;12.912;2022-09-21T05:43:10;102249.63;;;5.95;99.70
57668;BME280;43499;52.366;12.912;2022-09-21T05:44:12;102255.06;;;6.04;99.36
57668;BME280;43499;52.366;12.912;2022-09-21T05:45:15;102254.16;;;6.11;99.15
57668;BME280;43499;52.366;12.912;2022-09-21T05:46:20;102249.50;;;6.08;99.49
57668;BME280;43499;52.366;12.912;2022-09-21T05:47:50;102259.38;;;6.11;99.59
57668;BME280;43499;52.366;12.912;2022-09-21T05:48:59;102255.31;;;6.20;99.72
57668;BME280;43499;52.366;12.912;2022-09-21T05:53:35;102258.88;;;6.71;97.25
57668;BME280;43499;52.366;12.912;2022-09-21T05:55:19;102256.97;;;6.99;96.24
57668;BME280;43499;52.366;12.912;2022-09-21T06:03:27;102256.47;;;8.45;89.15